sensor_id;sensor_type;location;lat;lon;timestamp;pressure;altitude;pressure_sealevel;temperature;humidity
69772;BME280;57046;45.988;18.664;2023-03-11T00:00:57;98719.50;;;10.17;97.63
69772;BME280;57046;45.988;18.664;2023-03-11T00:03:23;98714.13;;;10.17;97.51
69772;BME280;57046;45.988;18.664;2023-03-11T00:05:48;98719.09;;;10.15;97.21
69772;BME280;57046;45.988;18.664;2023-03-11T00:08:16;98719.78;;;10.12;97.15
69772;BME280;57046;45.988;18.664;2023-03-11T00:10:45;98722.06;;;10.10;97.68
69772;BME280;57046;45.988;18.664;2023-03-11T00:13:13;98725.97;;;10.13;97.01
69772;BME280;57046;45.988;18.664;2023-03-11T00:15:39;98723.56;;;10.08;97.32
69772;BME280;57046;45.988;18.664;2023-03-11T00:18:05;98721.38;;;10.13;97.16
69772;BME280;57046;45.988;18.664;2023-03-11T00:20:33;98723.72;;;10.15;96.99
69772;BME280;57046;45.988;18.664;2023-03-11T00:23:00;98724.34;;;10.08;96.81
69772;BME280;57046;45.988;18.664;2023-03-11T00:25:27;98729.34;;;10.06;97.54
69772;BME280;57046;45.988;18.664;2023-03-11T00:27:56;98726.69;;;10.10;97.09
69772;BME280;57046;45.988;18.664;2023-03-11T00:30:23;98731.31;;;10.09;97.40
69772;BME280;57046;45.988;18.664;2023-03-11T00:32:50;98729.81;;;10.12;96.90
69772;BME280;57046;45.988;18.664;2023-03-11T00:35:19;98734.00;;;10.09;97.82
69772;BME280;57046;45.988;18.664;2023-03-11T00:37:46;98734.78;;;10.10;96.87
69772;BME280;57046;45.988;18.664;2023-03-11T00:40:13;98720.44;;;10.06;97.69
69772;BME280;57046;45.988;18.664;2023-03-11T00:42:39;98727.94;;;9.93;97.96
69772;BME280;57046;45.988;18.664;2023-03-11T00:45:05;98728.41;;;9.99;97.89
69772;BME280;57046;45.988;18.664;2023-03-11T00:47:31;98740.78;;;10.00;97.69
69772;BME280;57046;45.988;18.664;2023-03-11T00:49:56;98735.78;;;10.02;98.70
69772;BME280;57046;45.988;18.664;2023-03-11T00:52:21;98721.97;;;10.03;98.61
69772;BME280;57046;45.988;18.664;2023-03-11T00:54:47;98726.97;;;10.05;98.73
69772;BME280;57046;45.988;18.664;2023-03-11T00:57:12;98714.63;;;10.04;98.77
69772;BME280;57046;45.988;18.664;2023-03-11T00:59:38;98718.88;;;10.05;99.07
69772;BME280;57046;45.988;18.664;2023-03-11T01:02:03;98716.91;;;10.02;98.51
69772;BME280;57046;45.988;18.664;2023-03-11T01:04:28;98711.84;;;10.00;99.10
69772;BME280;57046;45.988;18.664;2023-03-11T01:06:54;98713.41;;;10.01;98.79
69772;BME280;57046;45.988;18.664;2023-03-11T01:09:19;98706.84;;;9.99;98.67
69772;BME280;57046;45.988;18.664;2023-03-11T01:11:45;98708.41;;;10.00;98.55
69772;BME280;57046;45.988;18.664;2023-03-11T01:14:10;98697.63;;;9.81;99.21
69772;BME280;57046;45.988;18.664;2023-03-11T01:16:35;98696.44;;;9.78;98.90
69772;BME280;57046;45.988;18.664;2023-03-11T01:19:01;98714.13;;;9.76;99.40
69772;BME280;57046;45.988;18.664;2023-03-11T01:21:26;98720.22;;;9.73;100.00
69772;BME280;57046;45.988;18.664;2023-03-11T01:23:52;98696.53;;;9.62;99.04
69772;BME280;57046;45.988;18.664;2023-03-11T01:26:17;98714.19;;;9.79;99.28
69772;BME280;57046;45.988;18.664;2023-03-11T01:28:43;98711.19;;;9.84;99.68
69772;BME280;57046;45.988;18.664;2023-03-11T01:31:09;98713.09;;;9.84;100.00
69772;BME280;57046;45.988;18.664;2023-03-11T01:33:34;98711.69;;;9.90;99.64
69772;BME280;57046;45.988;18.664;2023-03-11T01:36:00;98700.91;;;9.90;100.00
69772;BME280;57046;45.988;18.664;2023-03-11T01:38:25;98706.22;;;9.86;100.00
69772;BME280;57046;45.988;18.664;2023-03-11T01:40:52;98712.13;;;9.73;100.00
69772;BME280;57046;45.988;18.664;2023-03-11T01:48:35;98701.81;;;9.78;100.00
69772;BME280;57046;45.988;18.664;2023-03-11T01:51:00;98705.66;;;9.77;100.00
69772;BME280;57046;45.988;18.664;2023-03-11T01:53:26;98699.91;;;9.79;99.72
69772;BME280;57046;45.988;18.664;2023-03-11T01:55:51;98703.41;;;9.79;100.00
69772;BME280;57046;45.988;18.664;2023-03-11T01:58:20;98706.50;;;9.81;100.00
69772;BME280;57046;45.988;18.664;2023-03-11T02:00:47;98693.31;;;9.76;100.00
69772;BME280;57046;45.988;18.664;2023-03-11T02:03:26;98699.41;;;9.73;100.00
69772;BME280;57046;45.988;18.664;2023-03-11T02:05:53;98710.56;;;9.71;100.00
69772;BME280;57046;45.988;18.664;2023-03-11T02:08:20;98698.22;;;9.70;100.00
69772;BME280;57046;45.988;18.664;2023-03-11T02:10:45;98709.06;;;9.74;99.75
69772;BME280;57046;45.988;18.664;2023-03-11T02:13:12;98714.47;;;9.74;99.80
69772;BME280;57046;45.988;18.664;2023-03-11T02:15:38;98723.69;;;9.73;99.03
69772;BME280;57046;45.988;18.664;2023-03-11T02:18:05;98715.25;;;9.75;98.87
69772;BME280;57046;45.988;18.664;2023-03-11T02:20:54;98713.28;;;9.71;99.33
69772;BME280;57046;45.988;18.664;2023-03-11T02:23:24;98689.38;;;9.51;99.14
69772;BME280;57046;45.988;18.664;2023-03-11T02:26:06;98730.22;;;9.72;98.39
69772;BME280;57046;45.988;18.664;2023-03-11T02:28:39;98728.97;;;9.66;99.33
69772;BME280;57046;45.988;18.664;2023-03-11T02:31:06;98731.59;;;9.62;99.48
69772;BME280;57046;45.988;18.664;2023-03-11T02:33:33;98756.91;;;9.58;99.97
69772;BME280;57046;45.988;18.664;2023-03-11T02:36:00;98758.28;;;9.48;100.00
69772;BME280;57046;45.988;18.664;2023-03-11T02:38:25;98762.59;;;9.53;99.66
69772;BME280;57046;45.988;18.664;2023-03-11T02:43:22;98758.75;;;9.54;99.15
69772;BME280;57046;45.988;18.664;2023-03-11T02:45:48;98771.81;;;9.52;99.77
69772;BME280;57046;45.988;18.664;2023-03-11T02:48:14;98768.03;;;9.56;99.17
69772;BME280;57046;45.988;18.664;2023-03-11T02:50:41;98746.00;;;9.51;100.00
69772;BME280;57046;45.988;18.664;2023-03-11T02:53:08;98743.72;;;9.53;99.76
69772;BME280;57046;45.988;18.664;2023-03-11T02:55:33;98739.53;;;9.55;99.89
69772;BME280;57046;45.988;18.664;2023-03-11T02:57:59;98727.53;;;9.53;100.00
69772;BME280;57046;45.988;18.664;2023-03-11T03:00:24;98733.00;;;9.56;100.00
69772;BME280;57046;45.988;18.664;2023-03-11T03:02:49;98731.09;;;9.57;100.00
69772;BME280;57046;45.988;18.664;2023-03-11T03:05:15;98739.16;;;9.57;99.40
69772;BME280;57046;45.988;18.664;2023-03-11T03:07:40;98743.16;;;9.44;100.00
69772;BME280;57046;45.988;18.664;2023-03-11T03:10:06;98760.59;;;9.50;100.00
69772;BME280;57046;45.988;18.664;2023-03-11T03:12:31;98760.97;;;9.48;100.00
69772;BME280;57046;45.988;18.664;2023-03-11T03:14:57;98767.97;;;9.53;100.00
69772;BME280;57046;45.988;18.664;2023-03-11T03:17:23;98773.38;;;9.53;100.00
69772;BME280;57046;45.988;18.664;2023-03-11T03:19:48;98763.16;;;9.43;100.00
69772;BME280;57046;45.988;18.664;2023-03-11T03:22:14;98767.22;;;9.52;100.00
69772;BME280;57046;45.988;18.664;2023-03-11T03:24:39;98769.19;;;9.55;100.00
69772;BME280;57046;45.988;18.664;2023-03-11T03:27:05;98761.47;;;9.54;100.00
69772;BME280;57046;45.988;18.664;2023-03-11T03:29:31;98763.38;;;9.53;100.00
69772;BME280;57046;45.988;18.664;2023-03-11T03:31:56;98775.00;;;9.57;100.00
69772;BME280;57046;45.988;18.664;2023-03-11T03:34:21;98783.09;;;9.57;100.00
69772;BME280;57046;45.988;18.664;2023-03-11T03:36:47;98782.75;;;9.59;100.00
69772;BME280;57046;45.988;18.664;2023-03-11T03:39:12;98785.94;;;9.64;100.00
69772;BME280;57046;45.988;18.664;2023-03-11T03:41:37;98787.59;;;9.69;100.00
69772;BME280;57046;45.988;18.664;2023-03-11T03:44:03;98783.88;;;9.58;100.00
69772;BME280;57046;45.988;18.664;2023-03-11T03:46:28;98788.22;;;9.62;100.00
69772;BME280;57046;45.988;18.664;2023-03-11T03:48:54;98782.91;;;9.66;100.00
69772;BME280;57046;45.988;18.664;2023-03-11T03:51:19;98780.28;;;9.69;100.00
69772;BME280;57046;45.988;18.664;2023-03-11T03:53:44;98784.53;;;9.70;100.00
69772;BME280;57046;45.988;18.664;2023-03-11T03:56:12;98786.03;;;9.68;100.00
69772;BME280;57046;45.988;18.664;2023-03-11T03:58:38;98787.44;;;9.62;100.00
69772;BME280;57046;45.988;18.664;2023-03-11T04:01:04;98784.03;;;9.65;100.00
69772;BME280;57046;45.988;18.664;2023-03-11T04:03:30;98782.91;;;9.66;100.00
69772;BME280;57046;45.988;18.664;2023-03-11T04:06:16;98786.28;;;9.63;100.00
69772;BME280;57046;45.988;18.664;2023-03-11T04:08:41;98799.22;;;9.73;100.00
69772;BME280;57046;45.988;18.664;2023-03-11T04:11:07;98801.28;;;9.80;100.00
69772;BME280;57046;45.988;18.664;2023-03-11T04:13:32;98802.06;;;9.80;100.00
69772;BME280;57046;45.988;18.664;2023-03-11T04:15:58;98803.91;;;9.76;100.00
69772;BME280;57046;45.988;18.664;2023-03-11T04:18:23;98806.69;;;9.80;100.00
69772;BME280;57046;45.988;18.664;2023-03-11T04:20:49;98812.09;;;9.80;100.00
69772;BME280;57046;45.988;18.664;2023-03-11T04:23:14;98812.50;;;9.82;100.00
69772;BME280;57046;45.988;18.664;2023-03-11T04:25:40;98806.25;;;9.78;100.00
69772;BME280;57046;45.988;18.664;2023-03-11T04:28:05;98814.00;;;9.79;100.00
69772;BME280;57046;45.988;18.664;2023-03-11T04:30:30;98814.34;;;9.78;100.00
69772;BME280;57046;45.988;18.664;2023-03-11T04:32:56;98826.69;;;9.79;100.00
69772;BME280;57046;45.988;18.664;2023-03-11T04:35:21;98807.81;;;9.79;100.00
69772;BME280;57046;45.988;18.664;2023-03-11T04:37:46;98798.59;;;9.80;100.00
69772;BME280;57046;45.988;18.664;2023-03-11T04:40:12;98804.69;;;9.77;100.00
69772;BME280;57046;45.988;18.664;2023-03-11T04:42:38;98811.56;;;9.74;100.00
69772;BME280;57046;45.988;18.664;2023-03-11T04:45:04;98824.72;;;9.76;100.00
69772;BME280;57046;45.988;18.664;2023-03-11T04:47:30;98820.09;;;9.76;100.00
69772;BME280;57046;45.988;18.664;2023-03-11T04:49:55;98821.31;;;9.79;100.00
69772;BME280;57046;45.988;18.664;2023-03-11T04:52:21;98831.38;;;9.82;100.00
69772;BME280;57046;45.988;18.664;2023-03-11T04:54:46;98828.69;;;9.82;100.00
69772;BME280;57046;45.988;18.664;2023-03-11T04:57:12;98833.72;;;9.83;100.00
69772;BME280;57046;45.988;18.664;2023-03-11T04:59:37;98853.38;;;9.84;100.00
69772;BME280;57046;45.988;18.664;2023-03-11T05:02:02;98849.13;;;9.83;100.00
69772;BME280;57046;45.988;18.664;2023-03-11T05:04:28;98838.47;;;9.70;100.00
69772;BME280;57046;45.988;18.664;2023-03-11T05:06:53;98845.44;;;9.71;100.00
69772;BME280;57046;45.988;18.664;2023-03-11T05:09:18;98864.03;;;9.77;100.00
69772;BME280;57046;45.988;18.664;2023-03-11T05:11:44;98858.91;;;9.71;100.00
69772;BME280;57046;45.988;18.664;2023-03-11T05:14:09;98866.22;;;9.71;100.00
69772;BME280;57046;45.988;18.664;2023-03-11T05:16:34;98868.34;;;9.62;99.19
69772;BME280;57046;45.988;18.664;2023-03-11T05:19:00;98868.75;;;9.64;95.95
69772;BME280;57046;45.988;18.664;2023-03-11T05:21:25;98872.50;;;9.59;92.02
69772;BME280;57046;45.988;18.664;2023-03-11T05:23:51;98880.34;;;9.64;91.28
69772;BME280;57046;45.988;18.664;2023-03-11T05:26:16;98893.03;;;9.64;90.20
69772;BME280;57046;45.988;18.664;2023-03-11T05:28:41;98897.81;;;9.70;90.78
69772;BME280;57046;45.988;18.664;2023-03-11T05:31:08;98887.66;;;9.64;90.28
69772;BME280;57046;45.988;18.664;2023-03-11T05:33:33;98873.22;;;9.56;91.61
69772;BME280;57046;45.988;18.664;2023-03-11T05:36:04;98907.78;;;9.51;89.65
69772;BME280;57046;45.988;18.664;2023-03-11T05:38:29;98898.09;;;9.50;87.53
69772;BME280;57046;45.988;18.664;2023-03-11T05:40:55;98916.81;;;9.43;87.63
69772;BME280;57046;45.988;18.664;2023-03-11T05:43:20;98919.63;;;9.31;88.49
69772;BME280;57046;45.988;18.664;2023-03-11T05:45:45;98924.84;;;9.24;88.75
69772;BME280;57046;45.988;18.664;2023-03-11T05:48:11;98925.69;;;9.12;88.30
69772;BME280;57046;45.988;18.664;2023-03-11T05:50:36;98925.78;;;9.00;87.72
69772;BME280;57046;45.988;18.664;2023-03-11T05:53:02;98921.44;;;8.95;88.81
69772;BME280;57046;45.988;18.664;2023-03-11T05:55:27;98911.88;;;8.82;87.97
69772;BME280;57046;45.988;18.664;2023-03-11T05:57:52;98919.34;;;8.73;88.05
69772;BME280;57046;45.988;18.664;2023-03-11T06:00:18;98899.03;;;8.48;87.75
69772;BME280;57046;45.988;18.664;2023-03-11T06:02:44;98925.66;;;8.65;88.40
69772;BME280;57046;45.988;18.664;2023-03-11T06:05:09;98934.81;;;8.48;88.17
69772;BME280;57046;45.988;18.664;2023-03-11T06:07:35;98949.25;;;8.56;90.28
69772;BME280;57046;45.988;18.664;2023-03-11T06:10:02;98957.13;;;8.49;90.40
69772;BME280;57046;45.988;18.664;2023-03-11T06:12:27;98973.63;;;8.47;91.08
69772;BME280;57046;45.988;18.664;2023-03-11T06:14:53;98978.50;;;8.57;90.37
69772;BME280;57046;45.988;18.664;2023-03-11T06:17:18;98979.09;;;8.51;91.46
69772;BME280;57046;45.988;18.664;2023-03-11T06:19:43;98981.69;;;8.47;91.68
69772;BME280;57046;45.988;18.664;2023-03-11T06:22:09;98994.13;;;8.52;91.40
69772;BME280;57046;45.988;18.664;2023-03-11T06:24:34;98995.63;;;8.37;93.56
69772;BME280;57046;45.988;18.664;2023-03-11T06:27:00;99006.28;;;8.34;93.25
69772;BME280;57046;45.988;18.664;2023-03-11T06:29:25;98997.34;;;8.30;93.75
69772;BME280;57046;45.988;18.664;2023-03-11T06:31:50;99034.00;;;8.34;92.67
69772;BME280;57046;45.988;18.664;2023-03-11T06:34:16;99046.38;;;7.99;90.36
69772;BME280;57046;45.988;18.664;2023-03-11T06:36:41;99051.59;;;7.59;89.71
69772;BME280;57046;45.988;18.664;2023-03-11T06:39:07;99058.13;;;7.58;90.25
69772;BME280;57046;45.988;18.664;2023-03-11T06:41:33;99073.72;;;7.32;91.29
69772;BME280;57046;45.988;18.664;2023-03-11T06:43:58;99075.72;;;7.23;90.71
69772;BME280;57046;45.988;18.664;2023-03-11T06:46:24;99084.34;;;7.28;90.86
69772;BME280;57046;45.988;18.664;2023-03-11T06:48:49;99087.53;;;7.09;91.49
69772;BME280;57046;45.988;18.664;2023-03-11T06:51:14;99087.13;;;7.20;92.93
69772;BME280;57046;45.988;18.664;2023-03-11T06:53:40;99085.78;;;7.13;93.43
69772;BME280;57046;45.988;18.664;2023-03-11T06:56:08;99074.13;;;6.89;93.89
69772;BME280;57046;45.988;18.664;2023-03-11T06:58:35;99097.06;;;7.07;95.02
69772;BME280;57046;45.988;18.664;2023-03-11T07:01:10;99105.09;;;7.07;95.26
69772;BME280;57046;45.988;18.664;2023-03-11T07:03:36;99104.09;;;7.11;95.69
69772;BME280;57046;45.988;18.664;2023-03-11T07:06:02;99105.50;;;7.18;95.74
69772;BME280;57046;45.988;18.664;2023-03-11T07:08:28;99116.69;;;7.20;96.00
69772;BME280;57046;45.988;18.664;2023-03-11T07:11:03;99130.22;;;7.23;96.59
69772;BME280;57046;45.988;18.664;2023-03-11T07:13:29;99124.81;;;7.11;97.00
69772;BME280;57046;45.988;18.664;2023-03-11T07:16:00;99140.72;;;7.16;96.09
69772;BME280;57046;45.988;18.664;2023-03-11T07:18:26;99140.28;;;7.14;97.00
69772;BME280;57046;45.988;18.664;2023-03-11T07:20:52;99150.41;;;7.08;95.44
69772;BME280;57046;45.988;18.664;2023-03-11T07:23:18;99134.31;;;7.08;95.76
69772;BME280;57046;45.988;18.664;2023-03-11T07:25:47;99138.44;;;7.06;93.65
69772;BME280;57046;45.988;18.664;2023-03-11T07:28:13;99135.88;;;7.09;94.82
69772;BME280;57046;45.988;18.664;2023-03-11T07:30:39;99149.25;;;6.97;95.30
69772;BME280;57046;45.988;18.664;2023-03-11T07:33:05;99124.03;;;6.90;95.40
69772;BME280;57046;45.988;18.664;2023-03-11T07:35:31;99160.44;;;6.99;95.04
69772;BME280;57046;45.988;18.664;2023-03-11T07:37:56;99170.28;;;6.95;95.51
69772;BME280;57046;45.988;18.664;2023-03-11T07:40:22;99155.00;;;6.87;96.38
69772;BME280;57046;45.988;18.664;2023-03-11T07:42:47;99170.53;;;6.82;95.95
69772;BME280;57046;45.988;18.664;2023-03-11T07:45:13;99165.75;;;6.87;94.51
69772;BME280;57046;45.988;18.664;2023-03-11T07:47:38;99190.19;;;6.94;95.59
69772;BME280;57046;45.988;18.664;2023-03-11T07:50:04;99172.72;;;6.59;95.24
69772;BME280;57046;45.988;18.664;2023-03-11T07:52:30;99184.78;;;6.74;96.12
69772;BME280;57046;45.988;18.664;2023-03-11T07:54:56;99181.38;;;6.64;94.47
69772;BME280;57046;45.988;18.664;2023-03-11T07:57:21;99191.88;;;6.78;94.79
69772;BME280;57046;45.988;18.664;2023-03-11T07:59:47;99181.34;;;6.73;93.66
69772;BME280;57046;45.988;18.664;2023-03-11T08:02:12;99187.28;;;6.79;93.94
69772;BME280;57046;45.988;18.664;2023-03-11T08:04:37;99190.56;;;6.84;94.47
69772;BME280;57046;45.988;18.664;2023-03-11T08:07:03;99204.13;;;6.88;92.52
69772;BME280;57046;45.988;18.664;2023-03-11T08:09:28;99211.41;;;7.08;92.43
69772;BME280;57046;45.988;18.664;2023-03-11T08:11:54;99222.00;;;7.04;92.23
69772;BME280;57046;45.988;18.664;2023-03-11T08:14:19;99228.25;;;7.17;93.35
69772;BME280;57046;45.988;18.664;2023-03-11T08:16:44;99212.63;;;7.52;98.70
69772;BME280;57046;45.988;18.664;2023-03-11T08:19:11;99189.69;;;7.54;93.80
69772;BME280;57046;45.988;18.664;2023-03-11T08:21:37;99168.31;;;7.58;91.45
69772;BME280;57046;45.988;18.664;2023-03-11T08:24:02;99158.38;;;7.71;92.78
69772;BME280;57046;45.988;18.664;2023-03-11T08:26:28;99144.97;;;7.95;100.00
69772;BME280;57046;45.988;18.664;2023-03-11T08:28:55;99153.13;;;7.86;91.84
69772;BME280;57046;45.988;18.664;2023-03-11T08:31:26;99138.88;;;7.74;92.67
69772;BME280;57046;45.988;18.664;2023-03-11T08:33:54;99170.53;;;7.89;91.21
69772;BME280;57046;45.988;18.664;2023-03-11T08:36:20;99175.00;;;7.97;90.79
69772;BME280;57046;45.988;18.664;2023-03-11T08:38:46;99179.16;;;7.94;87.93
69772;BME280;57046;45.988;18.664;2023-03-11T08:41:11;99184.97;;;7.96;88.24
69772;BME280;57046;45.988;18.664;2023-03-11T08:43:37;99182.41;;;8.00;87.60
69772;BME280;57046;45.988;18.664;2023-03-11T08:46:04;99179.84;;;8.03;86.11
69772;BME280;57046;45.988;18.664;2023-03-11T08:48:29;99174.47;;;8.15;88.54
69772;BME280;57046;45.988;18.664;2023-03-11T08:50:55;99181.47;;;8.29;89.24
69772;BME280;57046;45.988;18.664;2023-03-11T08:53:23;99184.16;;;8.29;86.57
69772;BME280;57046;45.988;18.664;2023-03-11T08:55:49;99173.25;;;9.53;100.00
69772;BME280;57046;45.988;18.664;2023-03-11T08:58:15;99179.31;;;9.94;100.00
69772;BME280;57046;45.988;18.664;2023-03-11T09:00:40;99197.47;;;9.38;99.71
69772;BME280;57046;45.988;18.664;2023-03-11T09:03:06;99205.09;;;9.08;95.17
69772;BME280;57046;45.988;18.664;2023-03-11T09:05:31;99203.88;;;8.93;94.00
69772;BME280;57046;45.988;18.664;2023-03-11T09:07:57;99207.03;;;8.83;89.88
69772;BME280;57046;45.988;18.664;2023-03-11T09:10:22;99210.06;;;8.69;89.88
69772;BME280;57046;45.988;18.664;2023-03-11T09:12:48;99212.41;;;8.71;87.20
69772;BME280;57046;45.988;18.664;2023-03-11T09:15:13;99225.75;;;8.67;91.40
69772;BME280;57046;45.988;18.664;2023-03-11T09:17:38;99228.69;;;8.62;86.91
69772;BME280;57046;45.988;18.664;2023-03-11T09:20:04;99238.25;;;8.60;86.27
69772;BME280;57046;45.988;18.664;2023-03-11T09:22:30;99242.63;;;8.77;86.81
69772;BME280;57046;45.988;18.664;2023-03-11T09:24:56;99237.44;;;8.84;85.38
69772;BME280;57046;45.988;18.664;2023-03-11T09:27:21;99246.75;;;8.86;84.48
69772;BME280;57046;45.988;18.664;2023-03-11T09:29:47;99251.34;;;8.86;83.43
69772;BME280;57046;45.988;18.664;2023-03-11T09:32:12;99259.44;;;8.74;84.29
69772;BME280;57046;45.988;18.664;2023-03-11T09:34:38;99258.09;;;8.80;80.43
69772;BME280;57046;45.988;18.664;2023-03-11T09:37:03;99257.97;;;9.00;81.89
69772;BME280;57046;45.988;18.664;2023-03-11T09:39:29;99250.31;;;9.02;77.16
69772;BME280;57046;45.988;18.664;2023-03-11T09:41:57;99260.53;;;9.21;82.17
69772;BME280;57046;45.988;18.664;2023-03-11T09:44:35;99258.25;;;9.23;78.98
69772;BME280;57046;45.988;18.664;2023-03-11T09:50:28;99270.16;;;9.34;77.55
69772;BME280;57046;45.988;18.664;2023-03-11T09:55:48;99270.63;;;9.24;66.26
69772;BME280;57046;45.988;18.664;2023-03-11T09:58:18;99251.88;;;9.15;70.39
69772;BME280;57046;45.988;18.664;2023-03-11T10:00:46;99270.03;;;9.31;69.54
69772;BME280;57046;45.988;18.664;2023-03-11T10:03:25;99275.19;;;9.36;66.58
69772;BME280;57046;45.988;18.664;2023-03-11T10:06:29;99273.75;;;9.38;66.90
69772;BME280;57046;45.988;18.664;2023-03-11T10:08:56;99286.00;;;9.24;61.80
69772;BME280;57046;45.988;18.664;2023-03-11T10:11:28;99279.94;;;9.27;64.61
69772;BME280;57046;45.988;18.664;2023-03-11T10:22:13;99297.50;;;9.88;83.18
69772;BME280;57046;45.988;18.664;2023-03-11T10:28:04;99283.03;;;10.08;80.01
69772;BME280;57046;45.988;18.664;2023-03-11T10:30:35;99273.25;;;10.16;87.17
69772;BME280;57046;45.988;18.664;2023-03-11T10:33:25;99271.66;;;10.15;75.25
69772;BME280;57046;45.988;18.664;2023-03-11T10:35:55;99275.47;;;10.14;65.39
69772;BME280;57046;45.988;18.664;2023-03-11T10:40:59;99276.03;;;10.19;60.00
69772;BME280;57046;45.988;18.664;2023-03-11T10:43:34;99248.81;;;10.12;65.91
69772;BME280;57046;45.988;18.664;2023-03-11T10:46:04;99291.13;;;10.36;60.77
69772;BME280;57046;45.988;18.664;2023-03-11T10:48:34;99277.09;;;10.46;67.20
69772;BME280;57046;45.988;18.664;2023-03-11T10:51:13;99286.53;;;10.68;72.04
69772;BME280;57046;45.988;18.664;2023-03-11T10:56:32;99298.78;;;10.06;52.77
69772;BME280;57046;45.988;18.664;2023-03-11T10:58:58;99316.22;;;10.09;53.65
69772;BME280;57046;45.988;18.664;2023-03-11T11:01:24;99304.88;;;10.03;55.71
69772;BME280;57046;45.988;18.664;2023-03-11T11:03:52;99312.44;;;9.98;51.54
69772;BME280;57046;45.988;18.664;2023-03-11T11:06:25;99313.22;;;9.98;52.49
69772;BME280;57046;45.988;18.664;2023-03-11T11:09:29;99318.72;;;10.02;53.76
69772;BME280;57046;45.988;18.664;2023-03-11T11:12:05;99318.88;;;9.93;50.07
69772;BME280;57046;45.988;18.664;2023-03-11T11:17:31;99317.09;;;10.13;50.09
69772;BME280;57046;45.988;18.664;2023-03-11T11:19:58;99324.63;;;10.07;49.09
69772;BME280;57046;45.988;18.664;2023-03-11T11:22:26;99289.72;;;9.99;48.11
69772;BME280;57046;45.988;18.664;2023-03-11T11:24:54;99315.66;;;10.15;47.31
69772;BME280;57046;45.988;18.664;2023-03-11T11:27:25;99328.66;;;10.26;51.11
69772;BME280;57046;45.988;18.664;2023-03-11T11:30:23;99314.44;;;10.29;47.50
69772;BME280;57046;45.988;18.664;2023-03-11T11:32:49;99318.72;;;10.30;48.20
69772;BME280;57046;45.988;18.664;2023-03-11T11:35:15;99319.09;;;10.44;52.03
69772;BME280;57046;45.988;18.664;2023-03-11T11:37:44;99305.50;;;10.40;51.57
69772;BME280;57046;45.988;18.664;2023-03-11T11:42:45;99305.94;;;10.42;48.90
69772;BME280;57046;45.988;18.664;2023-03-11T11:45:36;99313.97;;;10.54;49.06
69772;BME280;57046;45.988;18.664;2023-03-11T11:48:19;99327.03;;;10.52;50.55
69772;BME280;57046;45.988;18.664;2023-03-11T11:50:51;99331.13;;;10.62;48.54
69772;BME280;57046;45.988;18.664;2023-03-11T11:55:56;99329.41;;;10.69;45.14
69772;BME280;57046;45.988;18.664;2023-03-11T11:58:21;99322.59;;;10.60;44.06
69772;BME280;57046;45.988;18.664;2023-03-11T12:01:06;99325.03;;;10.65;44.99
69772;BME280;57046;45.988;18.664;2023-03-11T12:06:30;99330.00;;;10.79;44.19
69772;BME280;57046;45.988;18.664;2023-03-11T12:09:17;99322.00;;;10.66;45.23
69772;BME280;57046;45.988;18.664;2023-03-11T12:17:08;99313.28;;;10.57;44.22
69772;BME280;57046;45.988;18.664;2023-03-11T12:19:52;99340.28;;;10.57;44.28
69772;BME280;57046;45.988;18.664;2023-03-11T12:28:00;99343.78;;;10.73;42.49
69772;BME280;57046;45.988;18.664;2023-03-11T12:30:30;99336.19;;;10.79;43.28
69772;BME280;57046;45.988;18.664;2023-03-11T12:33:04;99339.16;;;10.74;42.54
69772;BME280;57046;45.988;18.664;2023-03-11T12:35:31;99356.25;;;10.78;42.90
69772;BME280;57046;45.988;18.664;2023-03-11T12:45:52;99353.63;;;11.29;46.02
69772;BME280;57046;45.988;18.664;2023-03-11T12:50:52;99350.00;;;11.56;42.72
69772;BME280;57046;45.988;18.664;2023-03-11T12:53:18;99357.38;;;11.59;40.97
69772;BME280;57046;45.988;18.664;2023-03-11T13:02:02;99348.91;;;11.60;43.54
69772;BME280;57046;45.988;18.664;2023-03-11T13:08:02;99354.44;;;11.48;42.33
69772;BME280;57046;45.988;18.664;2023-03-11T13:10:33;99366.72;;;11.61;42.91
69772;BME280;57046;45.988;18.664;2023-03-11T13:12:59;99360.09;;;11.59;42.42
69772;BME280;57046;45.988;18.664;2023-03-11T13:15:29;99370.59;;;11.45;43.52
69772;BME280;57046;45.988;18.664;2023-03-11T13:18:25;99369.88;;;11.48;41.14
69772;BME280;57046;45.988;18.664;2023-03-11T13:21:01;99385.63;;;11.77;41.12
69772;BME280;57046;45.988;18.664;2023-03-11T13:23:33;99328.13;;;11.64;40.74
69772;BME280;57046;45.988;18.664;2023-03-11T13:38:00;99411.41;;;12.44;37.18
69772;BME280;57046;45.988;18.664;2023-03-11T13:40:40;99417.47;;;12.18;39.03
69772;BME280;57046;45.988;18.664;2023-03-11T13:43:22;99421.19;;;12.30;39.09
69772;BME280;57046;45.988;18.664;2023-03-11T13:46:04;99413.75;;;12.46;39.54
69772;BME280;57046;45.988;18.664;2023-03-11T13:48:43;99428.72;;;12.59;40.43
69772;BME280;57046;45.988;18.664;2023-03-11T13:51:19;99423.81;;;12.64;36.72
69772;BME280;57046;45.988;18.664;2023-03-11T13:53:50;99436.09;;;12.58;37.80
69772;BME280;57046;45.988;18.664;2023-03-11T13:56:44;99427.50;;;12.75;37.88
69772;BME280;57046;45.988;18.664;2023-03-11T14:01:50;99435.00;;;12.82;38.34
69772;BME280;57046;45.988;18.664;2023-03-11T14:04:24;99434.59;;;12.84;38.84
69772;BME280;57046;45.988;18.664;2023-03-11T14:06:51;99451.25;;;12.63;36.69
69772;BME280;57046;45.988;18.664;2023-03-11T14:09:25;99453.81;;;12.56;38.87
69772;BME280;57046;45.988;18.664;2023-03-11T14:11:53;99458.41;;;12.52;37.13
69772;BME280;57046;45.988;18.664;2023-03-11T14:14:32;99442.00;;;12.45;37.47
69772;BME280;57046;45.988;18.664;2023-03-11T14:16:59;99456.97;;;12.58;38.18
69772;BME280;57046;45.988;18.664;2023-03-11T14:19:26;99462.94;;;12.29;38.29
69772;BME280;57046;45.988;18.664;2023-03-11T14:21:51;99464.09;;;12.47;38.76
69772;BME280;57046;45.988;18.664;2023-03-11T14:24:20;99465.03;;;12.54;37.25
69772;BME280;57046;45.988;18.664;2023-03-11T14:26:46;99471.44;;;12.46;37.94